Terminal Aerodrome Forecast
Issued by NWS

Home | Current Version | Previous Version | Text Only | Print | Product List | Glossary On
Versions: 1 2 3 4 5 6 7 8 9 10 11 12
000
FTUS45 KVEF 050520
TAFBIH
TAF
KBIH 050520Z 0506/0606 16007KT P6SM SCT110 BKN250
     FM051600 17016G26KT P6SM VCSH BKN110 BKN250
     FM052200 16014G24KT P6SM VCSH BKN080 OVC150
     FM060200 16010KT P6SM VCSH BKN050 OVC100=

USA.gov is the U.S. government's official web portal to all federal, state and local government web resources and services.